Time;durP1;ratioP1;P1;durP2;ratioP2;P2;SDS_P1;SDS_P2;PMS_P1;PMS_P2;Temp;Humidity;BMP_temperature;BMP_pressure;BME280_temperature;BME280_humidity;BME280_pressure;Samples;Min_cycle;Max_cycle;Signal;HPM_P1;HPM_P2
2023/06/26 00:02:22;;;;;;;11.87;10.67;;;;;;;;;;6179855;28;20201;-64
2023/06/26 00:05:23;;;;;;;13.93;10.10;;;;;;;;;;6188169;28;20203;-64
2023/06/26 00:08:24;;;;;;;11.37;10.23;;;;;;;;;;6177878;28;20262;-63
2023/06/26 00:11:27;;;;;;;12.07;10.87;;;;;;;;;;6187963;28;20188;-64
2023/06/26 00:14:28;;;;;;;11.87;10.63;;;;;;;;;;6178047;28;20205;-64
2023/06/26 00:17:29;;;;;;;10.57;9.57;;;;;;;;;;6182104;28;20192;-63
2023/06/26 00:20:33;;;;;;;12.87;10.93;;;;;;;;;;6176788;28;20205;-63
2023/06/26 00:23:36;;;;;;;12.17;10.97;;;;;;;;;;6193376;28;20265;-64
2023/06/26 00:26:37;;;;;;;12.73;11.43;;;;;;;;;;6181327;28;20197;-64
2023/06/26 00:29:38;;;;;;;11.80;10.70;;;;;;;;;;6167538;28;20250;-63
2023/06/26 00:32:39;;;;;;;12.03;10.83;;;;;;;;;;6176776;28;20191;-63
2023/06/26 00:35:40;;;;;;;12.07;10.87;;;;;;;;;;6175463;28;20219;-64
2023/06/26 00:38:41;;;;;;;11.23;10.20;;;;;;;;;;6179725;28;20199;-63
2023/06/26 00:41:43;;;;;;;12.10;10.87;;;;;;;;;;6170269;28;20205;-63
2023/06/26 00:44:44;;;;;;;12.03;10.87;;;;;;;;;;6166792;28;20193;-63
2023/06/26 00:47:45;;;;;;;11.63;10.53;;;;;;;;;;6194946;28;20253;-63
2023/06/26 00:50:46;;;;;;;11.53;10.33;;;;;;;;;;6188877;28;20189;-63
2023/06/26 00:53:48;;;;;;;12.07;10.87;;;;;;;;;;6184593;28;20183;-64
2023/06/26 00:56:49;;;;;;;12.47;11.27;;;;;;;;;;6181431;28;20255;-63
2023/06/26 00:59:50;;;;;;;12.23;11.03;;;;;;;;;;6181091;28;20184;-63
2023/06/26 01:02:51;;;;;;;11.70;10.50;;;;;;;;;;6177870;28;20204;-63
2023/06/26 01:05:53;;;;;;;12.93;10.90;;;;;;;;;;6186431;28;20208;-64
2023/06/26 01:08:54;;;;;;;13.00;11.70;;;;;;;;;;6196795;28;20217;-63
2023/06/26 01:11:55;;;;;;;14.03;12.40;;;;;;;;;;6185311;28;20200;-64
2023/06/26 01:14:56;;;;;;;12.63;11.33;;;;;;;;;;6195381;28;20184;-64
2023/06/26 01:17:59;;;;;;;12.03;10.83;;;;;;;;;;6182563;28;20225;-64
2023/06/26 01:21:01;;;;;;;12.47;11.23;;;;;;;;;;6197924;28;20209;-63
2023/06/26 01:24:06;;;;;;;11.63;10.43;;;;;;;;;;6179139;28;20197;-64
2023/06/26 01:27:07;;;;;;;12.13;11.03;;;;;;;;;;6186164;28;20304;-64
2023/06/26 01:30:08;;;;;;;12.97;11.67;;;;;;;;;;6181491;28;20204;-64
2023/06/26 01:33:10;;;;;;;12.53;10.90;;;;;;;;;;6181431;28;20261;-64
2023/06/26 01:36:11;;;;;;;12.13;10.87;;;;;;;;;;6181566;28;20191;-64
2023/06/26 01:39:16;;;;;;;12.43;11.17;;;;;;;;;;6177727;28;20291;-64
2023/06/26 01:42:17;;;;;;;12.60;11.30;;;;;;;;;;6191866;28;20192;-64
2023/06/26 01:45:24;;;;;;;12.67;11.37;;;;;;;;;;6179421;28;20249;-64
2023/06/26 01:48:28;;;;;;;11.40;10.30;;;;;;;;;;6188856;28;20259;-64
2023/06/26 01:51:31;;;;;;;12.53;11.33;;;;;;;;;;6195515;28;20192;-64
2023/06/26 01:54:36;;;;;;;12.00;10.80;;;;;;;;;;6193822;28;20181;-64
2023/06/26 01:57:39;;;;;;;12.77;11.20;;;;;;;;;;6196739;28;20207;-64
2023/06/26 02:00:40;;;;;;;13.20;12.00;;;;;;;;;;6199520;28;20197;-64
2023/06/26 02:03:41;;;;;;;14.10;11.23;;;;;;;;;;6193723;28;20250;-64
2023/06/26 02:06:42;;;;;;;11.90;10.60;;;;;;;;;;6167526;28;20197;-64
2023/06/26 02:09:43;;;;;;;12.23;11.03;;;;;;;;;;6174563;28;20203;-64
2023/06/26 02:12:44;;;;;;;12.17;10.90;;;;;;;;;;6201710;28;20199;-64
2023/06/26 02:15:45;;;;;;;12.13;10.93;;;;;;;;;;6194902;28;20192;-64
2023/06/26 02:18:46;;;;;;;12.83;11.53;;;;;;;;;;6164454;28;20193;-64
2023/06/26 02:21:49;;;;;;;12.80;11.40;;;;;;;;;;6185218;28;20195;-64
2023/06/26 02:24:50;;;;;;;12.50;11.20;;;;;;;;;;6187283;28;20242;-64
2023/06/26 02:27:51;;;;;;;12.97;11.57;;;;;;;;;;6200837;28;20211;-64
2023/06/26 02:30:52;;;;;;;14.73;11.63;;;;;;;;;;6162525;28;20197;-64
2023/06/26 02:33:53;;;;;;;12.83;11.50;;;;;;;;;;6199572;28;20193;-64
2023/06/26 02:36:55;;;;;;;13.77;11.90;;;;;;;;;;6176366;28;20222;-64
2023/06/26 02:39:56;;;;;;;12.87;11.57;;;;;;;;;;6175906;28;20207;-64
2023/06/26 02:42:57;;;;;;;16.87;12.23;;;;;;;;;;6168906;28;20196;-64
2023/06/26 02:45:58;;;;;;;13.47;12.03;;;;;;;;;;6180945;28;20247;-64
2023/06/26 02:48:59;;;;;;;13.77;12.47;;;;;;;;;;6179336;28;20230;-64
2023/06/26 02:52:00;;;;;;;13.60;10.73;;;;;;;;;;6182150;28;20210;-64
2023/06/26 02:55:01;;;;;;;15.30;11.27;;;;;;;;;;6189815;28;20192;-63
2023/06/26 02:58:02;;;;;;;13.37;11.80;;;;;;;;;;6186984;28;20196;-64
2023/06/26 03:01:03;;;;;;;11.83;10.67;;;;;;;;;;6180521;28;20283;-64
2023/06/26 03:04:04;;;;;;;13.20;11.80;;;;;;;;;;6187840;28;20207;-63
2023/06/26 03:07:05;;;;;;;11.60;10.50;;;;;;;;;;6194852;28;20220;-64
2023/06/26 03:10:06;;;;;;;12.77;11.57;;;;;;;;;;6185596;28;20198;-64
2023/06/26 03:13:07;;;;;;;14.63;11.47;;;;;;;;;;6171936;28;20192;-64
2023/06/26 03:16:08;;;;;;;13.17;11.80;;;;;;;;;;6176755;28;20193;-64
2023/06/26 03:19:10;;;;;;;13.50;11.50;;;;;;;;;;6173508;28;20197;-64
2023/06/26 03:22:11;;;;;;;13.57;12.17;;;;;;;;;;6189858;28;20287;-64
2023/06/26 03:25:12;;;;;;;12.53;11.33;;;;;;;;;;6176349;28;20242;-64
2023/06/26 03:28:13;;;;;;;12.20;10.93;;;;;;;;;;6183410;28;20222;-64
2023/06/26 03:31:14;;;;;;;15.90;12.57;;;;;;;;;;6187058;28;20198;-64
2023/06/26 03:34:15;;;;;;;13.90;12.50;;;;;;;;;;6183486;28;20199;-64
2023/06/26 03:37:16;;;;;;;13.97;12.43;;;;;;;;;;6185766;28;20346;-64
2023/06/26 03:40:17;;;;;;;13.47;11.17;;;;;;;;;;6169749;28;20413;-64
2023/06/26 03:43:18;;;;;;;12.23;11.13;;;;;;;;;;6193287;28;20210;-64
2023/06/26 03:46:20;;;;;;;13.27;11.67;;;;;;;;;;6193605;28;20289;-64
2023/06/26 03:49:21;;;;;;;12.30;11.00;;;;;;;;;;6167143;28;20235;-64
2023/06/26 03:52:22;;;;;;;12.87;11.57;;;;;;;;;;6186038;28;20193;-64
2023/06/26 03:55:24;;;;;;;13.30;11.93;;;;;;;;;;6181094;28;20202;-64
2023/06/26 03:58:25;;;;;;;12.73;11.30;;;;;;;;;;6173424;28;20220;-65
2023/06/26 04:01:26;;;;;;;12.47;11.27;;;;;;;;;;6170657;28;20189;-64
2023/06/26 04:04:27;;;;;;;12.03;10.83;;;;;;;;;;6173952;28;20558;-64
2023/06/26 04:07:28;;;;;;;13.50;12.03;;;;;;;;;;6175262;28;20216;-64
2023/06/26 04:10:29;;;;;;;13.43;12.10;;;;;;;;;;6169429;28;20200;-65
2023/06/26 04:13:30;;;;;;;15.43;11.30;;;;;;;;;;6158968;28;20215;-65
2023/06/26 04:16:31;;;;;;;13.80;12.17;;;;;;;;;;6184041;28;20192;-65
2023/06/26 04:19:33;;;;;;;13.73;12.37;;;;;;;;;;6186508;28;20196;-64
2023/06/26 04:22:34;;;;;;;12.60;11.30;;;;;;;;;;6183240;28;20212;-65
2023/06/26 04:25:37;;;;;;;12.37;11.13;;;;;;;;;;6189275;28;20283;-69
2023/06/26 04:28:38;;;;;;;15.27;12.43;;;;;;;;;;6181784;28;20217;-63
2023/06/26 04:31:39;;;;;;;12.40;11.20;;;;;;;;;;6180393;28;20211;-64
2023/06/26 04:34:44;;;;;;;13.13;11.73;;;;;;;;;;6181927;28;20212;-63
2023/06/26 04:37:46;;;;;;;14.00;11.97;;;;;;;;;;6189089;28;20231;-63
2023/06/26 04:40:47;;;;;;;13.00;11.70;;;;;;;;;;6183172;28;20295;-63
2023/06/26 04:43:48;;;;;;;13.90;12.47;;;;;;;;;;6174151;28;20234;-62
2023/06/26 04:46:51;;;;;;;12.63;11.33;;;;;;;;;;6182114;28;20343;-62
2023/06/26 04:49:52;;;;;;;14.13;12.63;;;;;;;;;;6175493;28;20189;-63
2023/06/26 04:52:53;;;;;;;14.10;12.70;;;;;;;;;;6169575;28;20187;-62
2023/06/26 04:55:54;;;;;;;12.53;11.27;;;;;;;;;;6164988;28;20208;-63
2023/06/26 04:58:55;;;;;;;13.37;11.80;;;;;;;;;;6182707;28;20250;-63
2023/06/26 05:01:56;;;;;;;13.70;12.30;;;;;;;;;;6168725;28;20192;-63
2023/06/26 05:04:57;;;;;;;14.67;12.37;;;;;;;;;;6175234;28;20197;-63
2023/06/26 05:07:58;;;;;;;13.97;11.43;;;;;;;;;;6177358;28;20217;-63
2023/06/26 05:10:59;;;;;;;13.00;11.63;;;;;;;;;;6166172;28;20235;-63
2023/06/26 05:14:01;;;;;;;12.53;11.33;;;;;;;;;;6173655;28;20221;-63
2023/06/26 05:17:02;;;;;;;14.43;11.73;;;;;;;;;;6189812;28;20295;-63
2023/06/26 05:20:06;;;;;;;12.80;11.50;;;;;;;;;;6177198;28;20200;-63
2023/06/26 05:23:07;;;;;;;13.10;11.63;;;;;;;;;;6195767;28;20212;-63
2023/06/26 05:26:08;;;;;;;12.73;11.53;;;;;;;;;;6187833;28;20204;-63
2023/06/26 05:29:09;;;;;;;14.30;12.30;;;;;;;;;;6166378;28;20220;-62
2023/06/26 05:32:11;;;;;;;14.63;11.50;;;;;;;;;;6161208;28;20284;-62
2023/06/26 05:35:13;;;;;;;16.17;11.60;;;;;;;;;;6171737;28;20200;-62
2023/06/26 05:38:14;;;;;;;12.03;10.80;;;;;;;;;;6188453;28;20196;-62
2023/06/26 05:41:15;;;;;;;13.20;11.50;;;;;;;;;;6180370;28;20255;-63
2023/06/26 05:44:16;;;;;;;13.23;11.93;;;;;;;;;;6182765;28;20200;-63
2023/06/26 05:47:17;;;;;;;13.50;12.20;;;;;;;;;;6188752;28;20239;-63
2023/06/26 05:50:19;;;;;;;14.20;11.87;;;;;;;;;;6199416;28;20287;-63
2023/06/26 05:53:20;;;;;;;14.50;11.97;;;;;;;;;;6198642;28;20201;-63
2023/06/26 05:56:22;;;;;;;12.60;11.30;;;;;;;;;;6182382;28;20219;-63
2023/06/26 05:59:23;;;;;;;13.20;11.23;;;;;;;;;;6184265;28;20189;-63
2023/06/26 06:02:24;;;;;;;13.17;11.70;;;;;;;;;;6182236;28;20291;-63
2023/06/26 06:05:25;;;;;;;13.47;11.63;;;;;;;;;;6169522;28;20188;-63
2023/06/26 06:08:26;;;;;;;15.20;12.87;;;;;;;;;;6174801;28;20218;-63
2023/06/26 06:11:27;;;;;;;12.50;11.30;;;;;;;;;;6168330;28;20223;-63
2023/06/26 06:14:28;;;;;;;12.63;11.43;;;;;;;;;;6189171;28;20202;-63
2023/06/26 06:17:29;;;;;;;13.30;11.83;;;;;;;;;;6198735;28;20200;-62
2023/06/26 06:20:30;;;;;;;12.37;11.07;;;;;;;;;;6168586;28;20200;-64
2023/06/26 06:23:31;;;;;;;12.43;11.23;;;;;;;;;;6160719;28;20200;-63
2023/06/26 06:26:32;;;;;;;12.40;11.20;;;;;;;;;;6168622;28;20222;-63
2023/06/26 06:29:33;;;;;;;13.33;11.93;;;;;;;;;;6180667;28;20243;-63
2023/06/26 06:32:34;;;;;;;14.23;11.73;;;;;;;;;;6186404;28;20204;-63
2023/06/26 06:35:35;;;;;;;13.33;11.90;;;;;;;;;;6198254;28;20261;-63
2023/06/26 06:38:36;;;;;;;18.90;12.63;;;;;;;;;;6172763;28;20231;-63
2023/06/26 06:41:37;;;;;;;12.93;11.63;;;;;;;;;;6176122;28;20195;-63
2023/06/26 06:44:38;;;;;;;13.13;11.80;;;;;;;;;;6176922;28;20195;-63
2023/06/26 06:47:39;;;;;;;12.93;10.97;;;;;;;;;;6175291;28;20220;-63
2023/06/26 06:50:40;;;;;;;13.90;12.37;;;;;;;;;;6167056;28;20204;-63
2023/06/26 06:53:41;;;;;;;14.03;11.53;;;;;;;;;;6187969;28;20189;-63
2023/06/26 06:56:42;;;;;;;13.20;11.07;;;;;;;;;;6171302;28;20248;-63
2023/06/26 06:59:43;;;;;;;14.80;11.80;;;;;;;;;;6175606;28;20287;-63
2023/06/26 07:02:45;;;;;;;13.40;12.07;;;;;;;;;;6163746;28;20195;-63
2023/06/26 07:05:47;;;;;;;15.43;11.73;;;;;;;;;;6173731;28;20240;-63
2023/06/26 07:08:48;;;;;;;11.77;10.67;;;;;;;;;;6177537;28;20300;-63
2023/06/26 07:11:49;;;;;;;12.87;11.57;;;;;;;;;;6174245;28;20235;-63
2023/06/26 07:14:50;;;;;;;12.30;11.00;;;;;;;;;;6189575;28;20298;-63
2023/06/26 07:17:51;;;;;;;11.23;10.10;;;;;;;;;;6197501;28;20233;-63
2023/06/26 07:20:52;;;;;;;11.47;10.23;;;;;;;;;;6186331;28;20203;-63
2023/06/26 07:23:53;;;;;;;12.70;10.43;;;;;;;;;;6180510;28;20222;-63
2023/06/26 07:26:54;;;;;;;10.30;9.20;;;;;;;;;;6179833;28;20202;-63
2023/06/26 07:29:55;;;;;;;11.17;10.07;;;;;;;;;;6180225;28;20277;-63
2023/06/26 07:32:56;;;;;;;11.67;10.60;;;;;;;;;;6176750;28;20263;-63
2023/06/26 07:35:57;;;;;;;12.17;10.80;;;;;;;;;;6192884;28;20204;-63
2023/06/26 07:38:58;;;;;;;11.70;10.47;;;;;;;;;;6166006;28;20188;-63
2023/06/26 07:41:59;;;;;;;13.80;11.10;;;;;;;;;;6157367;28;20220;-63
2023/06/26 07:45:00;;;;;;;12.63;11.23;;;;;;;;;;6172640;28;20594;-63
2023/06/26 07:48:01;;;;;;;12.13;10.37;;;;;;;;;;6173714;28;20266;-63
2023/06/26 07:51:02;;;;;;;11.27;10.17;;;;;;;;;;6170492;28;20302;-63
2023/06/26 07:54:03;;;;;;;11.33;10.23;;;;;;;;;;6177753;28;20234;-64
2023/06/26 07:57:09;;;;;;;12.10;10.97;;;;;;;;;;6188263;28;20188;-63
2023/06/26 08:00:10;;;;;;;10.17;9.27;;;;;;;;;;6184724;28;20237;-63
2023/06/26 08:03:11;;;;;;;11.13;9.90;;;;;;;;;;6178767;28;20307;-64
2023/06/26 08:06:12;;;;;;;11.13;9.97;;;;;;;;;;6173820;28;20195;-63
2023/06/26 08:09:13;;;;;;;10.33;9.33;;;;;;;;;;6169958;28;20211;-63
2023/06/26 08:12:14;;;;;;;11.10;10.03;;;;;;;;;;6185469;28;20192;-63
2023/06/26 08:15:15;;;;;;;10.60;9.30;;;;;;;;;;6183326;28;20191;-63
2023/06/26 08:18:16;;;;;;;10.87;9.77;;;;;;;;;;6186704;28;20202;-63
2023/06/26 08:21:17;;;;;;;10.23;9.30;;;;;;;;;;6173318;28;20204;-63
2023/06/26 08:24:18;;;;;;;10.80;9.53;;;;;;;;;;6180865;28;20199;-63
2023/06/26 08:27:20;;;;;;;9.27;8.47;;;;;;;;;;6178849;28;20223;-63
2023/06/26 08:30:21;;;;;;;9.93;9.03;;;;;;;;;;6178784;28;20222;-64
2023/06/26 08:33:22;;;;;;;9.20;8.30;;;;;;;;;;6177467;28;20192;-63
2023/06/26 08:36:23;;;;;;;9.57;8.77;;;;;;;;;;6177394;28;20331;-63
2023/06/26 08:39:24;;;;;;;9.37;8.47;;;;;;;;;;6179789;28;20196;-63
2023/06/26 08:42:25;;;;;;;9.83;8.90;;;;;;;;;;6181305;28;20204;-63
2023/06/26 08:45:28;;;;;;;10.20;9.20;;;;;;;;;;6179847;28;20354;-63
2023/06/26 08:48:33;;;;;;;9.73;8.83;;;;;;;;;;6179048;28;20262;-63
2023/06/26 08:51:36;;;;;;;9.50;8.60;;;;;;;;;;6185424;28;20281;-63
2023/06/26 08:54:40;;;;;;;9.97;8.97;;;;;;;;;;6189320;28;20191;-63
2023/06/26 08:57:41;;;;;;;9.53;8.63;;;;;;;;;;6182614;28;20197;-63
2023/06/26 09:00:42;;;;;;;8.40;7.70;;;;;;;;;;6174379;28;20203;-63
2023/06/26 09:03:43;;;;;;;8.47;7.67;;;;;;;;;;6160875;28;20197;-63
2023/06/26 09:06:44;;;;;;;8.93;8.13;;;;;;;;;;6183065;28;20199;-63
2023/06/26 09:09:45;;;;;;;9.17;8.27;;;;;;;;;;6186635;28;20310;-63
2023/06/26 09:12:47;;;;;;;8.50;7.77;;;;;;;;;;6163457;28;20199;-63
2023/06/26 09:15:48;;;;;;;8.27;7.47;;;;;;;;;;6182944;28;20224;-63
2023/06/26 09:18:51;;;;;;;8.50;7.73;;;;;;;;;;6168782;28;20201;-64
2023/06/26 09:21:53;;;;;;;8.20;7.40;;;;;;;;;;6195200;28;20219;-63
2023/06/26 09:24:54;;;;;;;7.60;7.00;;;;;;;;;;6195726;28;20219;-63
2023/06/26 09:27:56;;;;;;;8.13;7.33;;;;;;;;;;6174005;28;20211;-63
2023/06/26 09:31:00;;;;;;;7.27;6.67;;;;;;;;;;6183405;28;20192;-63
2023/06/26 09:34:02;;;;;;;6.80;6.20;;;;;;;;;;6190352;28;20195;-63
2023/06/26 09:37:04;;;;;;;7.03;6.43;;;;;;;;;;6178181;28;20193;-63
2023/06/26 09:40:05;;;;;;;6.30;5.70;;;;;;;;;;6175636;28;20242;-64
2023/06/26 09:43:07;;;;;;;5.57;5.07;;;;;;;;;;6188359;28;20196;-64
2023/06/26 09:46:08;;;;;;;5.00;4.60;;;;;;;;;;6187748;28;20232;-63
2023/06/26 09:49:11;;;;;;;5.20;4.80;;;;;;;;;;6174742;28;20303;-63
2023/06/26 09:52:19;;;;;;;5.70;5.20;;;;;;;;;;6182773;28;20188;-64
2023/06/26 09:55:24;;;;;;;5.47;4.97;;;;;;;;;;6183876;28;20197;-64
2023/06/26 09:58:25;;;;;;;5.10;4.60;;;;;;;;;;6194057;28;20246;-64
2023/06/26 10:01:26;;;;;;;5.17;4.67;;;;;;;;;;6197536;28;20196;-64
2023/06/26 10:04:28;;;;;;;5.30;4.77;;;;;;;;;;6159232;28;20248;-64
2023/06/26 10:07:29;;;;;;;4.90;4.37;;;;;;;;;;6184791;28;20227;-64
2023/06/26 10:10:30;;;;;;;5.37;4.90;;;;;;;;;;6192101;28;20192;-64
2023/06/26 10:13:40;;;;;;;5.30;4.63;;;;;;;;;;6170535;28;20286;-64
2023/06/26 10:16:42;;;;;;;4.80;4.40;;;;;;;;;;6179950;28;20199;-64
2023/06/26 10:19:44;;;;;;;5.60;4.90;;;;;;;;;;6190500;28;20196;-64
2023/06/26 10:22:46;;;;;;;4.90;4.47;;;;;;;;;;6184825;28;20216;-64
2023/06/26 10:25:49;;;;;;;6.03;5.43;;;;;;;;;;6197451;28;20190;-64
2023/06/26 10:28:52;;;;;;;5.13;4.73;;;;;;;;;;6181200;28;20611;-64
2023/06/26 10:31:55;;;;;;;5.67;5.17;;;;;;;;;;6176907;28;20184;-64
2023/06/26 10:34:57;;;;;;;5.10;4.60;;;;;;;;;;6187504;28;20197;-63
2023/06/26 10:38:06;;;;;;;5.10;4.70;;;;;;;;;;6186756;28;20196;-63
2023/06/26 10:41:11;;;;;;;5.03;4.63;;;;;;;;;;6198470;28;20198;-63
2023/06/26 10:44:16;;;;;;;5.93;4.83;;;;;;;;;;6187001;28;20276;-63
2023/06/26 10:47:33;;;;;;;5.13;4.73;;;;;;;;;;6197569;28;20274;-63
2023/06/26 10:50:40;;;;;;;5.73;4.93;;;;;;;;;;6183469;28;20196;-63
2023/06/26 10:53:43;;;;;;;5.43;4.93;;;;;;;;;;6176013;28;20200;-63
2023/06/26 10:56:48;;;;;;;5.87;5.37;;;;;;;;;;6162909;28;20188;-63
2023/06/26 10:59:49;;;;;;;5.23;4.80;;;;;;;;;;6184467;28;20196;-63
2023/06/26 11:02:51;;;;;;;5.50;5.00;;;;;;;;;;6181332;28;20199;-63
2023/06/26 11:06:11;;;;;;;5.47;5.07;;;;;;;;;;6196774;28;20226;-63
2023/06/26 11:09:14;;;;;;;5.80;5.30;;;;;;;;;;6181845;28;20259;-63
2023/06/26 11:12:34;;;;;;;5.70;5.20;;;;;;;;;;6182545;28;20218;-63
2023/06/26 11:15:35;;;;;;;6.00;5.50;;;;;;;;;;6187401;28;20235;-63
2023/06/26 11:18:36;;;;;;;5.40;4.90;;;;;;;;;;6178066;28;20192;-63
2023/06/26 11:21:38;;;;;;;5.77;5.20;;;;;;;;;;6183537;28;20201;-64
2023/06/26 11:24:40;;;;;;;7.97;7.17;;;;;;;;;;6199818;28;20278;-63
2023/06/26 11:27:41;;;;;;;7.80;7.10;;;;;;;;;;6176099;28;20224;-64
2023/06/26 11:30:42;;;;;;;8.90;8.10;;;;;;;;;;6185492;28;20192;-63
2023/06/26 11:33:46;;;;;;;8.63;7.53;;;;;;;;;;6183127;28;20196;-65
2023/06/26 11:36:48;;;;;;;8.83;8.03;;;;;;;;;;6197026;28;20180;-64
2023/06/26 11:39:50;;;;;;;8.27;7.57;;;;;;;;;;6177616;28;20200;-64
2023/06/26 11:42:51;;;;;;;7.60;7.00;;;;;;;;;;6182621;28;20234;-64
2023/06/26 11:45:52;;;;;;;8.23;7.50;;;;;;;;;;6175057;28;20244;-64
2023/06/26 11:48:54;;;;;;;8.27;7.67;;;;;;;;;;6184013;28;20264;-64
2023/06/26 11:51:55;;;;;;;8.30;7.60;;;;;;;;;;6198927;28;20200;-65
2023/06/26 11:54:56;;;;;;;8.10;7.40;;;;;;;;;;6175550;28;20193;-64
2023/06/26 11:57:57;;;;;;;9.50;8.60;;;;;;;;;;6172524;28;20286;-64
2023/06/26 12:00:58;;;;;;;8.80;8.10;;;;;;;;;;6169071;28;20195;-64
2023/06/26 12:04:01;;;;;;;8.70;7.90;;;;;;;;;;6171754;28;20211;-64
2023/06/26 12:07:05;;;;;;;8.23;7.53;;;;;;;;;;6185529;28;20196;-65
2023/06/26 12:10:06;;;;;;;7.93;7.23;;;;;;;;;;6187221;28;20223;-64
2023/06/26 12:13:08;;;;;;;7.60;6.97;;;;;;;;;;6167089;28;20215;-64
2023/06/26 12:16:09;;;;;;;7.80;7.10;;;;;;;;;;6163137;28;20191;-65
2023/06/26 12:19:10;;;;;;;8.80;7.13;;;;;;;;;;6172845;28;20202;-65
2023/06/26 12:22:11;;;;;;;8.60;7.90;;;;;;;;;;6191193;28;20196;-64
2023/06/26 12:25:13;;;;;;;8.37;7.67;;;;;;;;;;6169349;28;20291;-65
2023/06/26 12:28:18;;;;;;;7.53;6.83;;;;;;;;;;6173093;28;20228;-65
2023/06/26 12:31:21;;;;;;;7.60;6.90;;;;;;;;;;6198757;28;20283;-66
2023/06/26 12:34:28;;;;;;;7.37;6.77;;;;;;;;;;6198463;28;20342;-66
2023/06/26 12:37:29;;;;;;;8.50;7.80;;;;;;;;;;6198027;28;20287;-65
2023/06/26 12:40:30;;;;;;;7.43;6.87;;;;;;;;;;6185507;28;20222;-65
2023/06/26 12:43:31;;;;;;;7.83;7.20;;;;;;;;;;6167150;28;20200;-66
2023/06/26 12:46:36;;;;;;;7.37;6.70;;;;;;;;;;6174644;28;20247;-66
2023/06/26 12:49:37;;;;;;;8.20;7.40;;;;;;;;;;6198071;28;20227;-66
2023/06/26 12:52:38;;;;;;;7.10;6.50;;;;;;;;;;6191374;28;20195;-66
2023/06/26 12:55:39;;;;;;;8.13;7.43;;;;;;;;;;6189327;28;20199;-65
2023/06/26 12:58:40;;;;;;;7.07;6.53;;;;;;;;;;6176018;28;20223;-66
2023/06/26 13:01:42;;;;;;;7.13;6.53;;;;;;;;;;6187336;28;20222;-66
2023/06/26 13:04:44;;;;;;;7.60;6.90;;;;;;;;;;6178739;28;20200;-66
2023/06/26 13:07:45;;;;;;;7.53;6.93;;;;;;;;;;6195960;28;20644;-66
2023/06/26 13:10:46;;;;;;;6.57;6.07;;;;;;;;;;6178939;28;20206;-67
2023/06/26 13:13:47;;;;;;;6.80;6.17;;;;;;;;;;6184807;28;20195;-67
2023/06/26 13:16:48;;;;;;;7.03;6.43;;;;;;;;;;6188657;28;20216;-66
2023/06/26 13:19:49;;;;;;;6.70;6.20;;;;;;;;;;6172166;28;20226;-67
2023/06/26 13:22:50;;;;;;;6.77;6.17;;;;;;;;;;6177172;28;20200;-67
2023/06/26 13:25:52;;;;;;;6.70;6.20;;;;;;;;;;6183008;28;20188;-66
2023/06/26 13:28:53;;;;;;;7.07;6.57;;;;;;;;;;6180547;28;20215;-66
2023/06/26 13:31:56;;;;;;;6.93;6.43;;;;;;;;;;6188771;28;20214;-66
2023/06/26 13:34:58;;;;;;;6.57;6.07;;;;;;;;;;6180700;28;20196;-66
2023/06/26 13:37:59;;;;;;;7.00;6.40;;;;;;;;;;6168759;28;20198;-66
2023/06/26 13:41:00;;;;;;;7.30;6.70;;;;;;;;;;6184249;28;20207;-63
2023/06/26 13:44:02;;;;;;;6.53;5.93;;;;;;;;;;6182648;28;20204;-64
2023/06/26 13:47:03;;;;;;;6.63;6.13;;;;;;;;;;6186579;28;20326;-66
2023/06/26 13:50:06;;;;;;;7.43;6.83;;;;;;;;;;6178111;28;20209;-65
2023/06/26 13:53:07;;;;;;;6.77;6.27;;;;;;;;;;6181915;28;20196;-65
2023/06/26 13:56:08;;;;;;;6.77;6.17;;;;;;;;;;6183295;28;20192;-64
2023/06/26 13:59:09;;;;;;;6.43;5.83;;;;;;;;;;6174716;28;20203;-64
2023/06/26 14:02:10;;;;;;;7.00;6.40;;;;;;;;;;6181986;28;20290;-64
2023/06/26 14:05:11;;;;;;;7.50;6.90;;;;;;;;;;6181895;28;20246;-63
2023/06/26 14:08:13;;;;;;;6.63;6.10;;;;;;;;;;6185263;28;20234;-64
2023/06/26 14:11:15;;;;;;;7.17;6.57;;;;;;;;;;6201450;28;20259;-64
2023/06/26 14:14:16;;;;;;;7.37;6.87;;;;;;;;;;6181030;28;20196;-63
2023/06/26 14:17:17;;;;;;;6.43;5.93;;;;;;;;;;6169916;28;20192;-64
2023/06/26 14:20:20;;;;;;;6.73;6.23;;;;;;;;;;6183774;28;20196;-64
2023/06/26 14:23:21;;;;;;;6.50;5.90;;;;;;;;;;6183438;28;20188;-64
2023/06/26 14:26:22;;;;;;;7.40;6.83;;;;;;;;;;6172733;28;20196;-64
2023/06/26 14:29:23;;;;;;;6.43;5.83;;;;;;;;;;6184524;28;20219;-64
2023/06/26 14:32:24;;;;;;;6.73;6.17;;;;;;;;;;6187417;28;20192;-64
2023/06/26 14:35:26;;;;;;;6.87;6.37;;;;;;;;;;6175904;28;20231;-64
2023/06/26 14:38:27;;;;;;;7.20;6.50;;;;;;;;;;6179009;28;20208;-64
2023/06/26 14:41:28;;;;;;;6.57;5.97;;;;;;;;;;6167523;28;20299;-64
2023/06/26 14:44:29;;;;;;;6.97;6.37;;;;;;;;;;6194751;28;20200;-64
2023/06/26 14:47:30;;;;;;;6.93;6.33;;;;;;;;;;6182914;28;20246;-64
2023/06/26 14:50:31;;;;;;;7.20;6.60;;;;;;;;;;6183615;28;20200;-64
2023/06/26 14:53:32;;;;;;;7.13;6.60;;;;;;;;;;6179634;28;20222;-64
2023/06/26 14:56:34;;;;;;;7.40;6.80;;;;;;;;;;6193804;28;20191;-64
2023/06/26 14:59:35;;;;;;;8.03;7.33;;;;;;;;;;6173698;28;20198;-65
2023/06/26 15:02:36;;;;;;;7.60;6.90;;;;;;;;;;6185228;28;20233;-64
2023/06/26 15:05:37;;;;;;;7.60;6.73;;;;;;;;;;6161185;28;20196;-64
2023/06/26 15:08:38;;;;;;;7.40;6.87;;;;;;;;;;6165685;28;20212;-65
2023/06/26 15:11:39;;;;;;;6.93;6.43;;;;;;;;;;6168701;28;20207;-65
2023/06/26 15:14:40;;;;;;;7.57;6.97;;;;;;;;;;6176063;28;20238;-64
2023/06/26 15:17:41;;;;;;;7.07;6.47;;;;;;;;;;6180954;28;20231;-64
2023/06/26 15:20:42;;;;;;;8.30;7.37;;;;;;;;;;6165178;28;20290;-64
2023/06/26 15:23:43;;;;;;;8.57;6.80;;;;;;;;;;6173609;28;20197;-64
2023/06/26 15:26:44;;;;;;;7.20;6.60;;;;;;;;;;6182311;28;20218;-64
2023/06/26 15:29:45;;;;;;;8.37;6.83;;;;;;;;;;6165625;28;20224;-64
2023/06/26 15:32:47;;;;;;;7.33;6.70;;;;;;;;;;6186341;28;20199;-64
2023/06/26 15:35:48;;;;;;;7.50;6.80;;;;;;;;;;6173002;28;20200;-64
2023/06/26 15:38:49;;;;;;;7.63;6.93;;;;;;;;;;6170347;28;20288;-65
2023/06/26 15:41:50;;;;;;;8.60;7.37;;;;;;;;;;6179252;28;20208;-64
2023/06/26 15:44:51;;;;;;;7.73;7.03;;;;;;;;;;6168106;28;20208;-63
2023/06/26 15:47:52;;;;;;;7.70;7.00;;;;;;;;;;6169666;28;20212;-64
2023/06/26 15:50:53;;;;;;;7.77;7.17;;;;;;;;;;6173852;28;20219;-64
2023/06/26 15:53:54;;;;;;;7.47;6.87;;;;;;;;;;6169886;28;20191;-66
2023/06/26 15:56:55;;;;;;;7.53;6.60;;;;;;;;;;6177977;28;20194;-64
2023/06/26 15:59:57;;;;;;;7.80;7.03;;;;;;;;;;6174752;28;20196;-64
2023/06/26 16:02:58;;;;;;;7.77;7.17;;;;;;;;;;6172791;28;20228;-64
2023/06/26 16:05:59;;;;;;;8.17;7.47;;;;;;;;;;6174690;28;20195;-64
2023/06/26 16:09:00;;;;;;;8.27;7.07;;;;;;;;;;6180381;28;20277;-64
2023/06/26 16:12:01;;;;;;;7.77;7.07;;;;;;;;;;6178129;28;20247;-64
2023/06/26 16:15:02;;;;;;;7.67;6.97;;;;;;;;;;6172684;28;20247;-66
2023/06/26 16:18:03;;;;;;;8.00;7.40;;;;;;;;;;6181320;28;20203;-63
2023/06/26 16:21:04;;;;;;;7.70;7.10;;;;;;;;;;6190097;28;20299;-63
2023/06/26 16:24:05;;;;;;;7.80;7.10;;;;;;;;;;6172098;28;20264;-65
2023/06/26 16:27:07;;;;;;;8.93;8.20;;;;;;;;;;6180334;28;20192;-64
2023/06/26 16:30:08;;;;;;;8.43;7.60;;;;;;;;;;6189573;28;20215;-64
2023/06/26 16:33:09;;;;;;;6.80;6.20;;;;;;;;;;6174789;28;20203;-64
2023/06/26 16:36:10;;;;;;;7.77;7.10;;;;;;;;;;6175707;28;20223;-63
2023/06/26 16:39:15;;;;;;;7.77;7.07;;;;;;;;;;6180048;28;20224;-63
2023/06/26 16:42:18;;;;;;;7.60;6.90;;;;;;;;;;6169319;28;20205;-63
2023/06/26 16:45:19;;;;;;;7.47;6.77;;;;;;;;;;6159742;28;20247;-63
2023/06/26 16:48:20;;;;;;;8.10;7.27;;;;;;;;;;6178055;28;20542;-64
2023/06/26 16:51:21;;;;;;;7.67;6.93;;;;;;;;;;6177154;28;20227;-63
2023/06/26 16:54:24;;;;;;;7.40;6.83;;;;;;;;;;6173858;28;20263;-63
2023/06/26 16:57:25;;;;;;;7.27;6.57;;;;;;;;;;6184606;28;20212;-62
2023/06/26 17:00:26;;;;;;;7.53;6.93;;;;;;;;;;6177887;28;20279;-63
2023/06/26 17:03:28;;;;;;;7.57;6.97;;;;;;;;;;6171389;28;20189;-63
2023/06/26 17:06:29;;;;;;;7.83;7.13;;;;;;;;;;6167432;28;20221;-64
2023/06/26 17:09:30;;;;;;;7.77;7.07;;;;;;;;;;6163563;28;20372;-62
2023/06/26 17:12:31;;;;;;;8.13;7.43;;;;;;;;;;6163623;28;20240;-63
2023/06/26 17:15:32;;;;;;;7.70;7.00;;;;;;;;;;6203498;28;20183;-65
2023/06/26 17:18:33;;;;;;;7.43;6.73;;;;;;;;;;6161741;28;20197;-64
2023/06/26 17:21:37;;;;;;;7.10;6.57;;;;;;;;;;6176240;28;20210;-63
2023/06/26 17:24:38;;;;;;;7.67;6.87;;;;;;;;;;6189610;28;20202;-64
2023/06/26 17:27:39;;;;;;;8.43;7.63;;;;;;;;;;6165997;28;20232;-64
2023/06/26 17:30:42;;;;;;;7.73;7.03;;;;;;;;;;6180749;28;20196;-65
2023/06/26 17:33:43;;;;;;;7.63;7.03;;;;;;;;;;6178327;28;20236;-64
2023/06/26 17:36:44;;;;;;;9.03;7.40;;;;;;;;;;6182834;28;20192;-64
2023/06/26 17:39:45;;;;;;;6.93;6.33;;;;;;;;;;6179622;28;20196;-64
2023/06/26 17:42:46;;;;;;;8.07;7.27;;;;;;;;;;6176981;28;20201;-64
2023/06/26 17:45:47;;;;;;;8.00;7.30;;;;;;;;;;6174526;28;20334;-63
2023/06/26 17:48:49;;;;;;;8.77;8.07;;;;;;;;;;6166058;28;20216;-63
2023/06/26 17:51:50;;;;;;;8.93;8.17;;;;;;;;;;6174059;28;20193;-63
2023/06/26 17:54:51;;;;;;;9.73;8.83;;;;;;;;;;6182250;28;20199;-63